Terminal Aerodrome Forecast
Issued by NWS

Home | Current Version | Previous Version | Text Only | Print | Product List | Glossary On
Versions: 1 2 3 4 5 6 7 8 9 10 11 12 13 14 15 16 17 18 19 20 21 22 23 24 25 26
000
FTUS43 KTOP 232334
TAFMHK
TAF
KMHK 232334Z 2400/2424 19012G27KT P6SM SCT035 BKN050
     FM240100 18014KT P6SM VCTS FEW070CB SCT150
     FM240400 20008KT P6SM SCT200 WS020/22050KT
     FM241300 18007KT P6SM BKN200=

USA.gov is the U.S. government's official web portal to all federal, state and local government web resources and services.